sensor_id;sensor_type;location;lat;lon;timestamp;P1;durP1;ratioP1;P2;durP2;ratioP2
24206;SDS011;12351;52.284;9.160;2023-08-17T00:01:30;4.57;;;1.80;;
24206;SDS011;12351;52.284;9.160;2023-08-17T00:04:17;6.07;;;1.80;;
24206;SDS011;12351;52.284;9.160;2023-08-17T00:07:04;2.57;;;1.60;;
24206;SDS011;12351;52.284;9.160;2023-08-17T00:09:50;6.83;;;1.70;;
24206;SDS011;12351;52.284;9.160;2023-08-17T00:12:37;5.47;;;1.80;;
24206;SDS011;12351;52.284;9.160;2023-08-17T00:15:24;1.97;;;1.57;;
24206;SDS011;12351;52.284;9.160;2023-08-17T00:18:11;3.77;;;1.53;;
24206;SDS011;12351;52.284;9.160;2023-08-17T00:20:58;6.57;;;2.00;;
24206;SDS011;12351;52.284;9.160;2023-08-17T00:23:45;3.17;;;1.77;;
24206;SDS011;12351;52.284;9.160;2023-08-17T00:26:32;3.77;;;1.70;;
24206;SDS011;12351;52.284;9.160;2023-08-17T00:29:18;6.77;;;1.90;;
24206;SDS011;12351;52.284;9.160;2023-08-17T00:32:05;2.47;;;1.50;;
24206;SDS011;12351;52.284;9.160;2023-08-17T00:34:52;4.00;;;1.93;;
24206;SDS011;12351;52.284;9.160;2023-08-17T00:37:39;2.10;;;1.62;;
24206;SDS011;12351;52.284;9.160;2023-08-17T00:40:26;3.43;;;1.60;;
24206;SDS011;12351;52.284;9.160;2023-08-17T00:43:13;2.10;;;1.50;;
24206;SDS011;12351;52.284;9.160;2023-08-17T00:46:04;3.93;;;1.70;;
24206;SDS011;12351;52.284;9.160;2023-08-17T00:48:54;3.77;;;1.80;;
24206;SDS011;12351;52.284;9.160;2023-08-17T00:51:43;3.10;;;1.80;;
24206;SDS011;12351;52.284;9.160;2023-08-17T00:54:32;3.73;;;1.83;;
24206;SDS011;12351;52.284;9.160;2023-08-17T00:57:21;4.00;;;1.80;;
24206;SDS011;12351;52.284;9.160;2023-08-17T01:00:09;3.97;;;1.80;;
24206;SDS011;12351;52.284;9.160;2023-08-17T01:02:58;3.43;;;1.90;;
24206;SDS011;12351;52.284;9.160;2023-08-17T01:05:44;4.13;;;1.57;;
24206;SDS011;12351;52.284;9.160;2023-08-17T01:08:31;5.73;;;1.70;;
24206;SDS011;12351;52.284;9.160;2023-08-17T01:11:22;3.73;;;1.70;;
24206;SDS011;12351;52.284;9.160;2023-08-17T01:14:12;5.67;;;1.90;;
24206;SDS011;12351;52.284;9.160;2023-08-17T01:17:00;3.45;;;1.65;;
24206;SDS011;12351;52.284;9.160;2023-08-17T01:19:49;4.83;;;1.97;;
24206;SDS011;12351;52.284;9.160;2023-08-17T01:22:40;3.90;;;1.90;;
24206;SDS011;12351;52.284;9.160;2023-08-17T01:25:28;7.23;;;2.10;;
24206;SDS011;12351;52.284;9.160;2023-08-17T01:28:15;4.67;;;2.30;;
24206;SDS011;12351;52.284;9.160;2023-08-17T01:31:05;4.70;;;1.90;;
24206;SDS011;12351;52.284;9.160;2023-08-17T01:33:56;2.83;;;2.00;;
24206;SDS011;12351;52.284;9.160;2023-08-17T01:36:49;3.70;;;2.10;;
24206;SDS011;12351;52.284;9.160;2023-08-17T01:39:38;3.95;;;2.02;;
24206;SDS011;12351;52.284;9.160;2023-08-17T01:42:27;4.60;;;2.20;;
24206;SDS011;12351;52.284;9.160;2023-08-17T01:45:19;4.67;;;2.60;;
24206;SDS011;12351;52.284;9.160;2023-08-17T01:48:09;4.60;;;1.82;;
24206;SDS011;12351;52.284;9.160;2023-08-17T01:50:56;3.98;;;2.20;;
24206;SDS011;12351;52.284;9.160;2023-08-17T01:53:43;5.65;;;2.00;;
24206;SDS011;12351;52.284;9.160;2023-08-17T01:56:30;5.17;;;2.30;;
24206;SDS011;12351;52.284;9.160;2023-08-17T01:59:17;4.75;;;2.10;;
24206;SDS011;12351;52.284;9.160;2023-08-17T02:02:04;3.72;;;2.02;;
24206;SDS011;12351;52.284;9.160;2023-08-17T02:04:53;4.63;;;2.43;;
24206;SDS011;12351;52.284;9.160;2023-08-17T02:07:41;4.37;;;2.10;;
24206;SDS011;12351;52.284;9.160;2023-08-17T02:10:29;4.87;;;2.20;;
24206;SDS011;12351;52.284;9.160;2023-08-17T02:13:17;4.53;;;2.30;;
24206;SDS011;12351;52.284;9.160;2023-08-17T02:16:06;2.87;;;2.22;;
24206;SDS011;12351;52.284;9.160;2023-08-17T02:18:55;6.70;;;2.13;;
24206;SDS011;12351;52.284;9.160;2023-08-17T02:21:46;4.00;;;2.63;;
24206;SDS011;12351;52.284;9.160;2023-08-17T02:24:35;6.15;;;2.72;;
24206;SDS011;12351;52.284;9.160;2023-08-17T02:27:25;2.83;;;2.07;;
24206;SDS011;12351;52.284;9.160;2023-08-17T02:30:18;4.77;;;2.40;;
24206;SDS011;12351;52.284;9.160;2023-08-17T02:33:05;5.17;;;2.40;;
24206;SDS011;12351;52.284;9.160;2023-08-17T02:35:56;4.45;;;2.67;;
24206;SDS011;12351;52.284;9.160;2023-08-17T02:38:46;4.30;;;2.47;;
24206;SDS011;12351;52.284;9.160;2023-08-17T02:41:39;6.35;;;2.55;;
24206;SDS011;12351;52.284;9.160;2023-08-17T02:44:29;4.78;;;2.42;;
24206;SDS011;12351;52.284;9.160;2023-08-17T02:47:21;4.25;;;2.58;;
24206;SDS011;12351;52.284;9.160;2023-08-17T02:50:12;5.45;;;2.72;;
24206;SDS011;12351;52.284;9.160;2023-08-17T02:53:03;6.80;;;2.60;;
24206;SDS011;12351;52.284;9.160;2023-08-17T02:55:53;4.85;;;2.40;;
24206;SDS011;12351;52.284;9.160;2023-08-17T02:58:46;5.80;;;2.58;;
24206;SDS011;12351;52.284;9.160;2023-08-17T03:01:38;8.28;;;3.35;;
24206;SDS011;12351;52.284;9.160;2023-08-17T03:04:28;6.70;;;2.55;;
24206;SDS011;12351;52.284;9.160;2023-08-17T03:07:18;4.67;;;2.60;;
24206;SDS011;12351;52.284;9.160;2023-08-17T03:10:09;3.87;;;2.62;;
24206;SDS011;12351;52.284;9.160;2023-08-17T03:13:00;5.05;;;2.80;;
24206;SDS011;12351;52.284;9.160;2023-08-17T03:15:53;4.50;;;2.50;;
24206;SDS011;12351;52.284;9.160;2023-08-17T03:18:45;4.20;;;2.80;;
24206;SDS011;12351;52.284;9.160;2023-08-17T03:21:37;4.22;;;2.80;;
24206;SDS011;12351;52.284;9.160;2023-08-17T03:24:27;4.63;;;2.80;;
24206;SDS011;12351;52.284;9.160;2023-08-17T03:27:18;6.85;;;3.00;;
24206;SDS011;12351;52.284;9.160;2023-08-17T03:30:09;4.42;;;2.70;;
24206;SDS011;12351;52.284;9.160;2023-08-17T03:33:00;3.70;;;2.55;;
24206;SDS011;12351;52.284;9.160;2023-08-17T03:35:48;7.22;;;2.85;;
24206;SDS011;12351;52.284;9.160;2023-08-17T03:38:38;5.50;;;2.70;;
24206;SDS011;12351;52.284;9.160;2023-08-17T03:41:31;6.08;;;2.90;;
24206;SDS011;12351;52.284;9.160;2023-08-17T03:44:21;3.35;;;2.80;;
24206;SDS011;12351;52.284;9.160;2023-08-17T03:47:13;4.83;;;3.02;;
24206;SDS011;12351;52.284;9.160;2023-08-17T03:50:04;6.53;;;2.98;;
24206;SDS011;12351;52.284;9.160;2023-08-17T03:52:53;5.03;;;2.97;;
24206;SDS011;12351;52.284;9.160;2023-08-17T03:55:46;5.27;;;3.27;;
24206;SDS011;12351;52.284;9.160;2023-08-17T03:58:37;5.00;;;3.22;;
24206;SDS011;12351;52.284;9.160;2023-08-17T04:01:26;4.77;;;3.13;;
24206;SDS011;12351;52.284;9.160;2023-08-17T04:04:17;4.50;;;3.03;;
24206;SDS011;12351;52.284;9.160;2023-08-17T04:07:04;8.15;;;2.98;;
24206;SDS011;12351;52.284;9.160;2023-08-17T04:09:54;5.77;;;3.20;;
24206;SDS011;12351;52.284;9.160;2023-08-17T04:12:44;5.70;;;3.30;;
24206;SDS011;12351;52.284;9.160;2023-08-17T04:15:32;5.33;;;3.17;;
24206;SDS011;12351;52.284;9.160;2023-08-17T04:18:22;4.43;;;3.13;;
24206;SDS011;12351;52.284;9.160;2023-08-17T04:21:15;6.55;;;3.50;;
24206;SDS011;12351;52.284;9.160;2023-08-17T04:24:05;6.45;;;3.35;;
24206;SDS011;12351;52.284;9.160;2023-08-17T04:26:55;8.20;;;3.10;;
24206;SDS011;12351;52.284;9.160;2023-08-17T04:29:51;5.37;;;3.27;;
24206;SDS011;12351;52.284;9.160;2023-08-17T04:32:41;6.23;;;3.50;;
24206;SDS011;12351;52.284;9.160;2023-08-17T04:35:31;5.72;;;3.67;;
24206;SDS011;12351;52.284;9.160;2023-08-17T04:38:23;6.87;;;3.50;;
24206;SDS011;12351;52.284;9.160;2023-08-17T04:41:12;4.33;;;3.40;;
24206;SDS011;12351;52.284;9.160;2023-08-17T04:44:03;8.78;;;3.70;;
24206;SDS011;12351;52.284;9.160;2023-08-17T04:46:53;5.80;;;3.80;;
24206;SDS011;12351;52.284;9.160;2023-08-17T04:49:43;5.62;;;3.50;;
24206;SDS011;12351;52.284;9.160;2023-08-17T04:52:36;7.17;;;3.45;;
24206;SDS011;12351;52.284;9.160;2023-08-17T04:55:27;5.47;;;4.13;;
24206;SDS011;12351;52.284;9.160;2023-08-17T04:58:18;9.33;;;4.33;;
24206;SDS011;12351;52.284;9.160;2023-08-17T05:01:07;8.83;;;4.30;;
24206;SDS011;12351;52.284;9.160;2023-08-17T05:04:01;5.50;;;4.40;;
24206;SDS011;12351;52.284;9.160;2023-08-17T05:06:49;7.55;;;4.20;;
24206;SDS011;12351;52.284;9.160;2023-08-17T05:09:40;13.78;;;4.87;;
24206;SDS011;12351;52.284;9.160;2023-08-17T05:12:28;6.00;;;4.97;;
24206;SDS011;12351;52.284;9.160;2023-08-17T05:15:22;11.33;;;6.05;;
24206;SDS011;12351;52.284;9.160;2023-08-17T05:18:10;10.28;;;6.95;;
24206;SDS011;12351;52.284;9.160;2023-08-17T05:21:01;7.75;;;5.67;;
24206;SDS011;12351;52.284;9.160;2023-08-17T05:23:52;8.10;;;5.40;;
24206;SDS011;12351;52.284;9.160;2023-08-17T05:26:43;6.03;;;5.10;;
24206;SDS011;12351;52.284;9.160;2023-08-17T05:29:31;6.33;;;5.70;;
24206;SDS011;12351;52.284;9.160;2023-08-17T05:32:21;6.75;;;4.60;;
24206;SDS011;12351;52.284;9.160;2023-08-17T05:35:13;9.30;;;5.45;;
24206;SDS011;12351;52.284;9.160;2023-08-17T05:38:02;6.62;;;5.08;;
24206;SDS011;12351;52.284;9.160;2023-08-17T05:43:42;7.10;;;5.95;;
24206;SDS011;12351;52.284;9.160;2023-08-17T05:46:35;7.15;;;5.37;;
24206;SDS011;12351;52.284;9.160;2023-08-17T05:49:26;9.18;;;5.47;;
24206;SDS011;12351;52.284;9.160;2023-08-17T05:52:16;7.25;;;5.10;;
24206;SDS011;12351;52.284;9.160;2023-08-17T05:55:06;7.08;;;5.17;;
24206;SDS011;12351;52.284;9.160;2023-08-17T05:57:55;6.45;;;5.10;;
24206;SDS011;12351;52.284;9.160;2023-08-17T06:00:48;7.03;;;5.25;;
24206;SDS011;12351;52.284;9.160;2023-08-17T06:03:36;8.43;;;5.05;;
24206;SDS011;12351;52.284;9.160;2023-08-17T06:06:31;8.93;;;5.30;;
24206;SDS011;12351;52.284;9.160;2023-08-17T06:09:20;6.37;;;5.45;;
24206;SDS011;12351;52.284;9.160;2023-08-17T06:12:12;6.50;;;5.30;;
24206;SDS011;12351;52.284;9.160;2023-08-17T06:15:02;5.92;;;5.30;;
24206;SDS011;12351;52.284;9.160;2023-08-17T06:17:51;6.65;;;4.92;;
24206;SDS011;12351;52.284;9.160;2023-08-17T06:20:42;9.35;;;5.72;;
24206;SDS011;12351;52.284;9.160;2023-08-17T06:23:33;8.53;;;6.12;;
24206;SDS011;12351;52.284;9.160;2023-08-17T06:26:22;8.33;;;5.40;;
24206;SDS011;12351;52.284;9.160;2023-08-17T06:29:12;6.00;;;5.40;;
24206;SDS011;12351;52.284;9.160;2023-08-17T06:32:02;7.33;;;5.17;;
24206;SDS011;12351;52.284;9.160;2023-08-17T06:34:51;6.62;;;5.95;;
24206;SDS011;12351;52.284;9.160;2023-08-17T06:37:43;7.08;;;5.78;;
24206;SDS011;12351;52.284;9.160;2023-08-17T06:40:35;7.35;;;5.47;;
24206;SDS011;12351;52.284;9.160;2023-08-17T06:43:23;6.85;;;5.92;;
24206;SDS011;12351;52.284;9.160;2023-08-17T06:46:13;6.97;;;5.22;;
24206;SDS011;12351;52.284;9.160;2023-08-17T06:49:03;8.68;;;5.80;;
24206;SDS011;12351;52.284;9.160;2023-08-17T06:51:54;7.22;;;6.05;;
24206;SDS011;12351;52.284;9.160;2023-08-17T06:54:45;8.83;;;6.03;;
24206;SDS011;12351;52.284;9.160;2023-08-17T06:57:37;7.65;;;6.28;;
24206;SDS011;12351;52.284;9.160;2023-08-17T07:00:27;6.20;;;5.60;;
24206;SDS011;12351;52.284;9.160;2023-08-17T07:03:15;6.67;;;5.67;;
24206;SDS011;12351;52.284;9.160;2023-08-17T07:06:05;5.43;;;4.93;;
24206;SDS011;12351;52.284;9.160;2023-08-17T07:08:55;6.05;;;5.45;;
24206;SDS011;12351;52.284;9.160;2023-08-17T07:11:46;5.43;;;4.93;;
24206;SDS011;12351;52.284;9.160;2023-08-17T07:14:39;6.05;;;5.42;;
24206;SDS011;12351;52.284;9.160;2023-08-17T07:17:29;6.47;;;5.10;;
24206;SDS011;12351;52.284;9.160;2023-08-17T07:20:18;8.75;;;5.30;;
24206;SDS011;12351;52.284;9.160;2023-08-17T07:23:13;7.45;;;5.47;;
24206;SDS011;12351;52.284;9.160;2023-08-17T07:26:03;6.90;;;5.80;;
24206;SDS011;12351;52.284;9.160;2023-08-17T07:28:54;5.90;;;5.35;;
24206;SDS011;12351;52.284;9.160;2023-08-17T07:31:45;7.30;;;5.30;;
24206;SDS011;12351;52.284;9.160;2023-08-17T07:34:33;6.47;;;5.33;;
24206;SDS011;12351;52.284;9.160;2023-08-17T07:37:24;6.92;;;6.03;;
24206;SDS011;12351;52.284;9.160;2023-08-17T07:40:16;6.65;;;5.95;;
24206;SDS011;12351;52.284;9.160;2023-08-17T07:43:07;8.38;;;6.15;;
24206;SDS011;12351;52.284;9.160;2023-08-17T07:51:59;6.65;;;5.72;;
24206;SDS011;12351;52.284;9.160;2023-08-17T07:54:48;8.58;;;6.37;;
24206;SDS011;12351;52.284;9.160;2023-08-17T07:57:40;6.78;;;6.10;;
24206;SDS011;12351;52.284;9.160;2023-08-17T08:00:29;7.50;;;6.28;;
24206;SDS011;12351;52.284;9.160;2023-08-17T08:03:18;6.70;;;6.10;;
24206;SDS011;12351;52.284;9.160;2023-08-17T08:06:09;6.33;;;5.72;;
24206;SDS011;12351;52.284;9.160;2023-08-17T08:08:59;7.03;;;6.33;;
24206;SDS011;12351;52.284;9.160;2023-08-17T08:11:48;8.08;;;6.37;;
24206;SDS011;12351;52.284;9.160;2023-08-17T08:14:38;8.35;;;6.67;;
24206;SDS011;12351;52.284;9.160;2023-08-17T08:17:29;9.63;;;5.85;;
24206;SDS011;12351;52.284;9.160;2023-08-17T08:20:21;11.68;;;6.15;;
24206;SDS011;12351;52.284;9.160;2023-08-17T08:23:09;7.27;;;6.57;;
24206;SDS011;12351;52.284;9.160;2023-08-17T08:25:58;7.47;;;6.67;;
24206;SDS011;12351;52.284;9.160;2023-08-17T08:28:49;8.83;;;7.10;;
24206;SDS011;12351;52.284;9.160;2023-08-17T08:31:39;6.83;;;6.08;;
24206;SDS011;12351;52.284;9.160;2023-08-17T08:34:28;7.40;;;6.70;;
24206;SDS011;12351;52.284;9.160;2023-08-17T08:37:18;9.35;;;6.92;;
24206;SDS011;12351;52.284;9.160;2023-08-17T08:40:10;7.22;;;6.42;;
24206;SDS011;12351;52.284;9.160;2023-08-17T08:43:00;7.45;;;6.65;;
24206;SDS011;12351;52.284;9.160;2023-08-17T08:45:48;7.60;;;6.15;;
24206;SDS011;12351;52.284;9.160;2023-08-17T08:48:39;6.97;;;6.28;;
24206;SDS011;12351;52.284;9.160;2023-08-17T08:51:31;10.90;;;6.33;;
24206;SDS011;12351;52.284;9.160;2023-08-17T08:54:22;6.70;;;6.00;;
24206;SDS011;12351;52.284;9.160;2023-08-17T08:57:12;9.63;;;6.58;;
24206;SDS011;12351;52.284;9.160;2023-08-17T09:00:03;6.40;;;5.80;;
24206;SDS011;12351;52.284;9.160;2023-08-17T09:02:54;5.20;;;4.75;;
24206;SDS011;12351;52.284;9.160;2023-08-17T09:05:46;5.35;;;4.58;;
24206;SDS011;12351;52.284;9.160;2023-08-17T09:08:37;5.33;;;4.83;;
24206;SDS011;12351;52.284;9.160;2023-08-17T09:11:24;6.10;;;5.10;;
24206;SDS011;12351;52.284;9.160;2023-08-17T09:14:12;5.87;;;4.77;;
24206;SDS011;12351;52.284;9.160;2023-08-17T09:17:02;5.20;;;4.77;;
24206;SDS011;12351;52.284;9.160;2023-08-17T09:19:53;5.00;;;4.57;;
24206;SDS011;12351;52.284;9.160;2023-08-17T09:22:42;5.03;;;4.57;;
24206;SDS011;12351;52.284;9.160;2023-08-17T09:25:37;6.28;;;4.37;;
24206;SDS011;12351;52.284;9.160;2023-08-17T09:28:24;5.17;;;4.17;;
24206;SDS011;12351;52.284;9.160;2023-08-17T09:31:19;4.15;;;3.75;;
24206;SDS011;12351;52.284;9.160;2023-08-17T09:34:08;4.10;;;3.67;;
24206;SDS011;12351;52.284;9.160;2023-08-17T09:39:49;4.07;;;3.70;;
24206;SDS011;12351;52.284;9.160;2023-08-17T09:42:38;3.77;;;3.47;;
24206;SDS011;12351;52.284;9.160;2023-08-17T09:45:32;3.47;;;3.17;;
24206;SDS011;12351;52.284;9.160;2023-08-17T09:48:21;3.70;;;2.97;;
24206;SDS011;12351;52.284;9.160;2023-08-17T09:57:52;3.30;;;3.00;;
24206;SDS011;12351;52.284;9.160;2023-08-17T10:03:33;2.60;;;2.40;;
24206;SDS011;12351;52.284;9.160;2023-08-17T10:06:27;3.37;;;2.50;;
24206;SDS011;12351;52.284;9.160;2023-08-17T10:09:16;3.30;;;2.50;;
24206;SDS011;12351;52.284;9.160;2023-08-17T10:12:08;2.57;;;2.30;;
24206;SDS011;12351;52.284;9.160;2023-08-17T10:15:01;2.47;;;2.37;;
24206;SDS011;12351;52.284;9.160;2023-08-17T10:17:53;2.92;;;2.72;;
24206;SDS011;12351;52.284;9.160;2023-08-17T10:20:43;2.42;;;2.25;;
24206;SDS011;12351;52.284;9.160;2023-08-17T10:23:31;2.92;;;2.70;;
24206;SDS011;12351;52.284;9.160;2023-08-17T10:26:21;2.40;;;2.30;;
24206;SDS011;12351;52.284;9.160;2023-08-17T10:29:12;2.60;;;2.40;;
24206;SDS011;12351;52.284;9.160;2023-08-17T10:32:02;3.10;;;2.80;;
24206;SDS011;12351;52.284;9.160;2023-08-17T10:34:51;3.20;;;2.90;;
24206;SDS011;12351;52.284;9.160;2023-08-17T10:37:43;3.10;;;2.90;;
24206;SDS011;12351;52.284;9.160;2023-08-17T10:43:24;3.53;;;2.87;;
24206;SDS011;12351;52.284;9.160;2023-08-17T10:46:15;3.33;;;3.02;;
24206;SDS011;12351;52.284;9.160;2023-08-17T10:49:07;4.55;;;3.45;;
24206;SDS011;12351;52.284;9.160;2023-08-17T10:54:49;3.40;;;3.10;;
24206;SDS011;12351;52.284;9.160;2023-08-17T10:57:40;4.30;;;3.90;;
24206;SDS011;12351;52.284;9.160;2023-08-17T11:00:33;3.87;;;3.43;;
24206;SDS011;12351;52.284;9.160;2023-08-17T11:03:23;4.20;;;3.60;;
24206;SDS011;12351;52.284;9.160;2023-08-17T11:06:15;3.72;;;3.10;;
24206;SDS011;12351;52.284;9.160;2023-08-17T11:09:06;4.25;;;3.42;;
24206;SDS011;12351;52.284;9.160;2023-08-17T11:11:57;6.40;;;3.58;;
24206;SDS011;12351;52.284;9.160;2023-08-17T11:14:49;5.15;;;4.00;;
24206;SDS011;12351;52.284;9.160;2023-08-17T11:17:41;3.73;;;3.43;;
24206;SDS011;12351;52.284;9.160;2023-08-17T11:20:30;4.13;;;3.47;;
24206;SDS011;12351;52.284;9.160;2023-08-17T11:23:19;3.95;;;3.40;;
24206;SDS011;12351;52.284;9.160;2023-08-17T11:26:12;4.45;;;3.35;;
24206;SDS011;12351;52.284;9.160;2023-08-17T11:29:02;4.28;;;3.45;;
24206;SDS011;12351;52.284;9.160;2023-08-17T11:31:53;4.12;;;3.83;;
24206;SDS011;12351;52.284;9.160;2023-08-17T11:34:43;4.45;;;4.05;;
24206;SDS011;12351;52.284;9.160;2023-08-17T11:37:36;4.22;;;3.83;;
24206;SDS011;12351;52.284;9.160;2023-08-17T11:40:25;5.30;;;4.10;;
24206;SDS011;12351;52.284;9.160;2023-08-17T11:43:15;4.55;;;4.08;;
24206;SDS011;12351;52.284;9.160;2023-08-17T11:46:07;7.03;;;4.10;;
24206;SDS011;12351;52.284;9.160;2023-08-17T11:48:58;6.10;;;4.15;;
24206;SDS011;12351;52.284;9.160;2023-08-17T11:51:47;5.00;;;4.20;;
24206;SDS011;12351;52.284;9.160;2023-08-17T11:57:30;6.12;;;3.65;;
24206;SDS011;12351;52.284;9.160;2023-08-17T12:00:20;6.03;;;4.07;;
24206;SDS011;12351;52.284;9.160;2023-08-17T12:06:04;5.87;;;3.77;;
24206;SDS011;12351;52.284;9.160;2023-08-17T12:08:53;5.00;;;3.97;;
24206;SDS011;12351;52.284;9.160;2023-08-17T12:11:47;4.65;;;4.03;;
24206;SDS011;12351;52.284;9.160;2023-08-17T12:14:39;5.22;;;4.12;;
24206;SDS011;12351;52.284;9.160;2023-08-17T12:17:27;4.00;;;3.60;;
24206;SDS011;12351;52.284;9.160;2023-08-17T12:20:19;5.15;;;3.60;;
24206;SDS011;12351;52.284;9.160;2023-08-17T12:23:10;7.05;;;4.05;;
24206;SDS011;12351;52.284;9.160;2023-08-17T12:26:03;4.10;;;3.60;;
24206;SDS011;12351;52.284;9.160;2023-08-17T12:28:54;4.03;;;3.60;;
24206;SDS011;12351;52.284;9.160;2023-08-17T12:31:46;4.30;;;3.60;;
24206;SDS011;12351;52.284;9.160;2023-08-17T12:34:38;5.87;;;3.90;;
24206;SDS011;12351;52.284;9.160;2023-08-17T12:37:29;6.85;;;3.72;;
24206;SDS011;12351;52.284;9.160;2023-08-17T12:40:20;5.15;;;3.67;;
24206;SDS011;12351;52.284;9.160;2023-08-17T12:43:12;4.87;;;3.83;;
24206;SDS011;12351;52.284;9.160;2023-08-17T12:46:06;5.17;;;3.80;;
24206;SDS011;12351;52.284;9.160;2023-08-17T12:48:56;5.50;;;3.67;;
24206;SDS011;12351;52.284;9.160;2023-08-17T12:51:48;4.30;;;3.35;;
24206;SDS011;12351;52.284;9.160;2023-08-17T12:54:37;4.10;;;3.30;;
24206;SDS011;12351;52.284;9.160;2023-08-17T12:57:27;3.97;;;3.27;;
24206;SDS011;12351;52.284;9.160;2023-08-17T13:00:18;4.03;;;3.60;;
24206;SDS011;12351;52.284;9.160;2023-08-17T13:03:11;5.83;;;3.55;;
24206;SDS011;12351;52.284;9.160;2023-08-17T13:06:02;5.42;;;4.10;;
24206;SDS011;12351;52.284;9.160;2023-08-17T13:08:51;4.60;;;3.65;;
24206;SDS011;12351;52.284;9.160;2023-08-17T13:11:42;5.45;;;3.40;;
24206;SDS011;12351;52.284;9.160;2023-08-17T13:14:34;5.37;;;4.10;;
24206;SDS011;12351;52.284;9.160;2023-08-17T13:17:23;8.73;;;4.12;;
24206;SDS011;12351;52.284;9.160;2023-08-17T13:20:15;5.53;;;4.15;;
24206;SDS011;12351;52.284;9.160;2023-08-17T13:23:06;7.35;;;3.60;;
24206;SDS011;12351;52.284;9.160;2023-08-17T13:25:52;7.20;;;4.15;;
24206;SDS011;12351;52.284;9.160;2023-08-17T13:28:43;5.10;;;4.12;;
24206;SDS011;12351;52.284;9.160;2023-08-17T13:31:33;7.72;;;4.05;;
24206;SDS011;12351;52.284;9.160;2023-08-17T13:34:23;6.78;;;3.83;;
24206;SDS011;12351;52.284;9.160;2023-08-17T13:37:11;4.90;;;3.52;;
24206;SDS011;12351;52.284;9.160;2023-08-17T13:40:01;5.08;;;3.37;;
24206;SDS011;12351;52.284;9.160;2023-08-17T13:42:53;5.43;;;3.80;;
24206;SDS011;12351;52.284;9.160;2023-08-17T13:45:44;5.20;;;3.58;;
24206;SDS011;12351;52.284;9.160;2023-08-17T13:48:34;6.33;;;3.83;;
24206;SDS011;12351;52.284;9.160;2023-08-17T13:51:25;7.62;;;3.80;;
24206;SDS011;12351;52.284;9.160;2023-08-17T13:54:13;6.03;;;3.90;;
24206;SDS011;12351;52.284;9.160;2023-08-17T13:57:02;5.67;;;3.83;;
24206;SDS011;12351;52.284;9.160;2023-08-17T13:59:53;6.85;;;3.65;;
24206;SDS011;12351;52.284;9.160;2023-08-17T14:02:45;4.65;;;3.55;;
24206;SDS011;12351;52.284;9.160;2023-08-17T14:05:34;5.10;;;3.47;;
24206;SDS011;12351;52.284;9.160;2023-08-17T14:08:24;5.93;;;3.80;;
24206;SDS011;12351;52.284;9.160;2023-08-17T14:11:14;6.20;;;3.90;;
24206;SDS011;12351;52.284;9.160;2023-08-17T14:14:05;5.58;;;3.72;;
24206;SDS011;12351;52.284;9.160;2023-08-17T14:16:56;7.20;;;3.65;;
24206;SDS011;12351;52.284;9.160;2023-08-17T14:19:44;5.37;;;3.70;;
24206;SDS011;12351;52.284;9.160;2023-08-17T14:22:35;6.17;;;3.77;;
24206;SDS011;12351;52.284;9.160;2023-08-17T14:25:23;5.77;;;3.90;;
24206;SDS011;12351;52.284;9.160;2023-08-17T14:28:14;6.70;;;3.58;;
24206;SDS011;12351;52.284;9.160;2023-08-17T14:31:05;4.85;;;3.20;;
24206;SDS011;12351;52.284;9.160;2023-08-17T14:33:57;4.15;;;3.12;;
24206;SDS011;12351;52.284;9.160;2023-08-17T14:36:50;6.72;;;3.33;;
24206;SDS011;12351;52.284;9.160;2023-08-17T14:39:40;5.00;;;3.70;;
24206;SDS011;12351;52.284;9.160;2023-08-17T14:42:32;4.43;;;3.53;;
24206;SDS011;12351;52.284;9.160;2023-08-17T14:45:23;4.05;;;3.25;;
24206;SDS011;12351;52.284;9.160;2023-08-17T14:48:10;4.43;;;3.63;;
24206;SDS011;12351;52.284;9.160;2023-08-17T14:50:59;5.23;;;3.40;;
24206;SDS011;12351;52.284;9.160;2023-08-17T14:53:48;3.40;;;3.05;;
24206;SDS011;12351;52.284;9.160;2023-08-17T14:56:40;4.40;;;3.17;;
24206;SDS011;12351;52.284;9.160;2023-08-17T14:59:31;5.60;;;3.62;;
24206;SDS011;12351;52.284;9.160;2023-08-17T15:02:22;5.28;;;3.52;;
24206;SDS011;12351;52.284;9.160;2023-08-17T15:05:12;4.37;;;3.40;;
24206;SDS011;12351;52.284;9.160;2023-08-17T15:08:00;6.83;;;3.58;;
24206;SDS011;12351;52.284;9.160;2023-08-17T15:10:52;4.87;;;3.50;;
24206;SDS011;12351;52.284;9.160;2023-08-17T15:13:44;4.92;;;3.58;;
24206;SDS011;12351;52.284;9.160;2023-08-17T15:16:33;4.47;;;3.60;;
24206;SDS011;12351;52.284;9.160;2023-08-17T15:19:24;4.80;;;3.67;;
24206;SDS011;12351;52.284;9.160;2023-08-17T15:22:15;5.43;;;3.67;;
24206;SDS011;12351;52.284;9.160;2023-08-17T15:25:05;4.30;;;3.67;;
24206;SDS011;12351;52.284;9.160;2023-08-17T15:27:57;5.90;;;3.57;;
24206;SDS011;12351;52.284;9.160;2023-08-17T15:30:50;4.85;;;3.58;;
24206;SDS011;12351;52.284;9.160;2023-08-17T15:33:39;4.87;;;3.42;;
24206;SDS011;12351;52.284;9.160;2023-08-17T15:36:28;4.97;;;3.67;;
24206;SDS011;12351;52.284;9.160;2023-08-17T15:39:19;5.33;;;3.47;;
24206;SDS011;12351;52.284;9.160;2023-08-17T15:42:07;4.97;;;3.42;;
24206;SDS011;12351;52.284;9.160;2023-08-17T15:44:58;4.42;;;3.10;;
24206;SDS011;12351;52.284;9.160;2023-08-17T15:47:48;5.03;;;3.58;;
24206;SDS011;12351;52.284;9.160;2023-08-17T15:50:39;6.15;;;3.70;;
24206;SDS011;12351;52.284;9.160;2023-08-17T15:53:28;4.40;;;3.58;;
24206;SDS011;12351;52.284;9.160;2023-08-17T15:56:17;5.40;;;3.60;;
24206;SDS011;12351;52.284;9.160;2023-08-17T15:59:06;6.23;;;3.37;;
24206;SDS011;12351;52.284;9.160;2023-08-17T16:01:57;5.62;;;3.50;;
24206;SDS011;12351;52.284;9.160;2023-08-17T16:04:47;4.95;;;3.33;;
24206;SDS011;12351;52.284;9.160;2023-08-17T16:07:42;3.75;;;3.00;;
24206;SDS011;12351;52.284;9.160;2023-08-17T16:10:31;4.50;;;3.37;;
24206;SDS011;12351;52.284;9.160;2023-08-17T16:13:20;4.10;;;2.90;;
24206;SDS011;12351;52.284;9.160;2023-08-17T16:16:10;4.40;;;2.80;;
24206;SDS011;12351;52.284;9.160;2023-08-17T16:18:58;4.05;;;3.20;;
24206;SDS011;12351;52.284;9.160;2023-08-17T16:21:49;4.57;;;3.23;;
24206;SDS011;12351;52.284;9.160;2023-08-17T16:24:39;4.57;;;3.53;;
24206;SDS011;12351;52.284;9.160;2023-08-17T16:27:30;5.50;;;3.60;;
24206;SDS011;12351;52.284;9.160;2023-08-17T16:30:19;4.20;;;3.80;;
24206;SDS011;12351;52.284;9.160;2023-08-17T16:33:10;4.00;;;3.57;;
24206;SDS011;12351;52.284;9.160;2023-08-17T16:36:00;5.73;;;3.80;;
24206;SDS011;12351;52.284;9.160;2023-08-17T16:38:52;3.87;;;3.47;;
24206;SDS011;12351;52.284;9.160;2023-08-17T16:41:42;4.40;;;3.50;;
24206;SDS011;12351;52.284;9.160;2023-08-17T16:44:33;5.90;;;3.52;;
24206;SDS011;12351;52.284;9.160;2023-08-17T16:47:23;4.27;;;3.87;;
24206;SDS011;12351;52.284;9.160;2023-08-17T16:50:13;4.30;;;3.60;;
24206;SDS011;12351;52.284;9.160;2023-08-17T16:53:04;5.00;;;3.70;;
24206;SDS011;12351;52.284;9.160;2023-08-17T16:55:55;5.63;;;3.93;;
24206;SDS011;12351;52.284;9.160;2023-08-17T16:58:45;3.87;;;3.50;;
24206;SDS011;12351;52.284;9.160;2023-08-17T17:01:35;4.87;;;3.98;;
24206;SDS011;12351;52.284;9.160;2023-08-17T17:04:28;5.67;;;3.87;;
24206;SDS011;12351;52.284;9.160;2023-08-17T17:07:17;4.78;;;3.72;;
24206;SDS011;12351;52.284;9.160;2023-08-17T17:10:09;4.90;;;3.30;;
24206;SDS011;12351;52.284;9.160;2023-08-17T17:12:57;7.25;;;3.90;;
24206;SDS011;12351;52.284;9.160;2023-08-17T17:15:50;5.78;;;4.80;;
24206;SDS011;12351;52.284;9.160;2023-08-17T17:18:38;5.13;;;4.10;;
24206;SDS011;12351;52.284;9.160;2023-08-17T17:21:27;6.87;;;4.40;;
24206;SDS011;12351;52.284;9.160;2023-08-17T17:24:18;6.27;;;4.53;;
24206;SDS011;12351;52.284;9.160;2023-08-17T17:27:08;6.83;;;4.42;;
24206;SDS011;12351;52.284;9.160;2023-08-17T17:30:00;6.55;;;4.33;;
24206;SDS011;12351;52.284;9.160;2023-08-17T17:32:52;4.58;;;4.17;;
24206;SDS011;12351;52.284;9.160;2023-08-17T17:35:42;9.00;;;4.80;;
24206;SDS011;12351;52.284;9.160;2023-08-17T17:38:33;5.22;;;4.45;;